Ukiah Municipal Airport
KUKI : rendu visible

Aérodrome :











RETROUVEZ-NOUS SUR...

 
LOGIN :

S'inscrire | Disclaimer

   EN    FR    IT 

 









Légende :    VFR   VFR Marginal   IFR   IFR Intensif   IFR Très Intensif
Visi : 
Plafond : 
>= 8 km
>= 3000ft
5 à 8 km
1000 à 3000 ft
1500m à 5 km
500 à 1000 ft
800 à 1500m
200 à 500 ft
< 800m
< 200 ft
Symboles :   Orages  Brouillard  Fortes neiges  Fortes précipitations  Vent > 20 kt






- Altitude de l'aérodrome : 614 ft


KUKI - Ukiah Municipal

DERNIER METAR :
  • 100656Z AUTO 00000KT 10SM OVC010 10/09 A3020 RMK AO2 CIG 007V011 SLP225 T01000089

METARs EXPIRÉS :
  • 100642Z AUTO 00000KT 8SM OVC009 10/09 A3020 RMK AO2 CIG 007V011 T01000089
  • 100556Z AUTO 00000KT 9SM OVC010 11/09 A3020 RMK AO2 SLP223 T01060089 10117 20094 58002
  • 100536Z AUTO 00000KT 10SM OVC010 11/09 A3020 RMK AO2 T01060089
  • 100511Z AUTO 18003KT 10SM OVC009 10/09 A3021 RMK AO2 T01000089
  • 100456Z AUTO 00000KT 10SM OVC010 10/09 A3021 RMK AO2 CIG 008V011 SLP227 T01000089
  • 100427Z AUTO 00000KT 10SM OVC010 11/09 A3022 RMK AO2 T01060089

TAF KUKI
Valide du 10 à 06h jusqu'au 11 à 06h UTC


100521Z 1006/1106 16003KT P6SM OVC009
FM100900 00000KT 6SM BR OVC004
FM101800 VRB03KT P6SM BKN015
FM102000 15003KT P6SM VCSH BKN030
FM110200 16004KT 3SM -RA BR BKN007 OVC015



MET'MAP, la Météo Aéronautique d'un coup d'oeil ! - Copyright ORBIFLY Décembre 2007 - Disclaimer

ORBIFLY MET'MAP TEAM :

Programmation & Développement : Alexandra Zaïnal
Sur une idée originale de : Baudouin d'Aumeries
Assistance à la programmation : Marc-Olivier Méhu
Soutien technique & logistique : Manuel Goepfert

Contact : metmap@orbifly.com




SOURCES & CREDITS :

   NOAA       Earth
Advisory